Time;durP1;ratioP1;P1;durP2;ratioP2;P2;SDS_P1;SDS_P2;PMS_P1;PMS_P2;Temp;Humidity;BMP_temperature;BMP_pressure;BME280_temperature;BME280_humidity;BME280_pressure;Samples;Min_cycle;Max_cycle;Signal;HPM_P1;HPM_P2
2022/01/30 00:01:24;;;;;;;29.27;5.80;;;5.20;99.90;;;;;;5034763;28;20404;-76
2022/01/30 00:03:49;;;;;;;23.15;4.25;;;5.40;99.90;;;;;;5034867;28;20045;-80
2022/01/30 00:06:15;;;;;;;20.33;4.05;;;5.50;99.90;;;;;;5018315;28;20507;-77
2022/01/30 00:08:41;;;;;;;21.92;3.92;;;5.70;99.90;;;;;;5002000;28;20488;-81
2022/01/30 00:11:14;;;;;;;24.48;5.25;;;5.70;99.90;;;;;;5034737;28;20045;-81
2022/01/30 00:13:39;;;;;;;;;;;5.70;98.00;;;;;;5003342;28;20052;-81
2022/01/30 00:16:08;;;;;;;14.07;2.72;;;5.90;80.70;;;;;;5001653;28;20287;-81
2022/01/30 00:21:15;;;;;;;29.17;5.00;;;5.90;86.10;;;;;;5034666;28;20106;-80
2022/01/30 00:23:53;;;;;;;22.33;4.63;;;5.60;99.90;;;;;;5034520;28;20048;-77
2022/01/30 00:26:20;;;;;;;26.75;4.68;;;5.20;99.90;;;;;;5034451;28;20050;-77
2022/01/30 00:28:46;;;;;;;14.07;3.58;;;5.00;99.90;;;;;;5034458;28;20041;-80
2022/01/30 00:31:14;;;;;;;13.93;2.45;;;4.70;99.90;;;;;;5001469;28;20049;-81
2022/01/30 00:33:40;;;;;;;18.33;1.92;;;4.30;99.90;;;;;;5034352;28;20045;-82
2022/01/30 00:36:06;;;;;;;18.38;3.35;;;4.00;99.90;;;;;;5017205;28;20129;-81
2022/01/30 00:38:33;;;;;;;16.15;2.72;;;4.10;99.90;;;;;;5017804;28;20038;-83
2022/01/30 00:40:59;;;;;;;18.23;4.68;;;3.90;99.90;;;;;;5001855;28;20480;-81
2022/01/30 00:43:24;;;;;;;23.10;4.22;;;4.10;99.90;;;;;;5017624;28;20048;-77
2022/01/30 00:45:50;;;;;;;27.13;4.57;;;4.20;99.90;;;;;;5033850;28;20045;-76
2022/01/30 00:48:17;;;;;;;28.52;5.15;;;4.20;99.90;;;;;;5017653;28;20053;-79
2022/01/30 00:50:43;;;;;;;28.73;5.15;;;4.20;99.90;;;;;;5017461;28;20077;-79
2022/01/30 00:53:08;;;;;;;26.77;3.88;;;4.20;99.90;;;;;;5034207;28;20514;-78
2022/01/30 00:55:35;;;;;;;21.55;4.82;;;4.20;99.90;;;;;;5017197;28;20042;-76
2022/01/30 00:58:02;;;;;;;16.88;3.80;;;4.20;99.90;;;;;;5033668;28;20060;-80
2022/01/30 01:00:28;;;;;;;20.65;3.10;;;4.10;99.90;;;;;;5033852;28;20080;-76
2022/01/30 01:02:54;;;;;;;19.85;3.40;;;4.10;99.90;;;;;;5017361;28;20037;-80
2022/01/30 01:05:21;;;;;;;15.90;3.65;;;4.10;99.90;;;;;;5017033;28;20079;-76
2022/01/30 01:07:48;;;;;;;24.77;5.05;;;4.00;99.90;;;;;;5033906;28;20392;-80
2022/01/30 01:13:49;;;;;;;25.38;5.35;;;4.20;99.90;;;;;;5018856;28;20050;-80
2022/01/30 01:24:01;;;;;;;29.65;5.00;;;4.40;99.90;;;;;;5019234;28;20052;-80
2022/01/30 01:26:27;;;;;;;37.70;5.38;;;4.60;99.90;;;;;;5016720;28;20045;-76
2022/01/30 01:28:53;;;;;;;36.00;5.65;;;4.40;99.90;;;;;;5016901;28;20045;-81
2022/01/30 01:31:21;;;;;;;30.92;5.55;;;4.50;99.90;;;;;;5033373;28;20107;-77
2022/01/30 01:34:07;;;;;;;18.02;4.35;;;4.40;99.90;;;;;;5033470;28;20478;-77
2022/01/30 01:36:33;;;;;;;31.45;5.07;;;4.50;99.90;;;;;;5033072;28;20045;-82
2022/01/30 01:38:59;;;;;;;19.60;3.85;;;4.50;99.90;;;;;;5016622;28;20472;-77
2022/01/30 01:41:26;;;;;;;21.08;3.80;;;4.30;99.90;;;;;;5032846;28;20091;-80
2022/01/30 01:43:52;;;;;;;22.45;4.10;;;4.20;99.90;;;;;;5032985;28;20053;-76
2022/01/30 01:46:24;;;;;;;24.15;4.00;;;4.20;99.90;;;;;;5032464;28;20484;-80
2022/01/30 01:48:52;;;;;;;24.90;3.92;;;4.00;99.90;;;;;;5016272;28;20049;-80
2022/01/30 01:51:22;;;;;;;21.63;4.00;;;4.00;99.90;;;;;;5032731;28;20042;-80
2022/01/30 01:53:52;;;;;;;18.45;3.67;;;4.30;99.90;;;;;;5032805;28;20053;-77
2022/01/30 01:56:18;;;;;;;33.63;5.93;;;4.20;99.90;;;;;;5032857;28;20377;-80
2022/01/30 01:58:44;;;;;;;55.92;6.85;;;4.50;99.90;;;;;;5032658;28;20132;-76
2022/01/30 02:01:10;;;;;;;36.58;6.82;;;4.80;99.90;;;;;;5032447;28;20111;-79
2022/01/30 02:03:38;;;;;;;41.80;7.00;;;4.90;99.90;;;;;;5016160;28;20128;-76
2022/01/30 02:06:07;;;;;;;36.35;6.55;;;5.00;99.90;;;;;;5032355;28;20052;-80
2022/01/30 02:08:36;;;;;;;35.75;5.20;;;5.10;99.90;;;;;;5015974;28;20047;-80
2022/01/30 02:13:59;;;;;;;32.13;4.80;;;5.10;99.90;;;;;;5032581;28;20072;-82
2022/01/30 02:27:24;;;;;;;30.42;4.88;;;4.50;99.90;;;;;;5032399;28;20483;-78
2022/01/30 02:29:51;;;;;;;34.50;5.85;;;4.50;99.90;;;;;;5032240;28;20254;-82
2022/01/30 02:32:17;;;;;;;31.35;5.60;;;4.50;99.90;;;;;;5015886;28;20041;-77
2022/01/30 02:34:43;;;;;;;32.70;5.57;;;4.50;99.90;;;;;;5015411;28;20128;-78
2022/01/30 02:37:09;;;;;;;36.30;5.88;;;4.60;99.90;;;;;;5032343;28;20042;-81
2022/01/30 02:39:35;;;;;;;34.25;7.65;;;4.60;99.90;;;;;;5032023;28;20077;-81
2022/01/30 02:42:01;;;;;;;35.40;6.32;;;4.50;99.90;;;;;;5015424;28;20049;-83
2022/01/30 02:44:41;;;;;;;30.67;6.22;;;4.50;99.90;;;;;;4998953;28;20041;-81
2022/01/30 02:47:20;;;;;;;38.42;6.68;;;4.50;99.90;;;;;;5031487;28;20057;-78
2022/01/30 02:50:11;;;;;;;33.78;6.05;;;4.50;99.90;;;;;;5031661;28;20060;-81
2022/01/30 02:52:35;;;;;;;35.17;5.88;;;4.60;99.90;;;;;;5031322;28;20060;-81
2022/01/30 02:55:01;;;;;;;37.90;6.80;;;4.50;99.90;;;;;;5031721;28;20438;-78
2022/01/30 02:57:26;;;;;;;34.15;6.82;;;4.60;99.90;;;;;;5031605;28;20053;-81
2022/01/30 02:59:52;;;;;;;36.70;6.00;;;4.70;99.90;;;;;;5031584;28;20054;-77
2022/01/30 03:02:18;;;;;;;26.15;6.20;;;4.60;99.90;;;;;;5031826;28;20136;-77
2022/01/30 03:04:43;;;;;;;30.17;4.65;;;4.90;99.90;;;;;;5014880;28;20054;-81
2022/01/30 03:07:09;;;;;;;42.67;7.13;;;5.00;99.90;;;;;;5015063;28;20046;-82
2022/01/30 03:09:35;;;;;;;44.45;7.15;;;5.00;99.90;;;;;;5031752;28;20538;-77
2022/01/30 03:12:02;;;;;;;33.67;8.43;;;5.00;99.90;;;;;;5015070;28;20045;-81
2022/01/30 03:14:28;;;;;;;42.88;7.22;;;5.10;99.90;;;;;;5015312;28;20506;-80
2022/01/30 03:16:54;;;;;;;40.88;9.20;;;5.10;99.90;;;;;;5031331;28;20041;-81
2022/01/30 03:19:20;;;;;;;27.35;5.07;;;5.20;99.90;;;;;;5015199;28;20658;-78
2022/01/30 03:21:46;;;;;;;31.77;5.95;;;5.20;99.90;;;;;;5031351;28;20041;-81
2022/01/30 03:24:11;;;;;;;30.35;5.70;;;5.20;99.90;;;;;;5031358;28;20077;-77
2022/01/30 03:26:39;;;;;;;29.15;5.47;;;5.30;99.90;;;;;;4998822;28;20045;-77
2022/01/30 03:29:07;;;;;;;26.45;5.65;;;5.40;99.90;;;;;;5015168;28;20141;-77
2022/01/30 03:31:38;;;;;;;33.92;5.43;;;5.40;99.90;;;;;;5031241;28;20132;-81
2022/01/30 03:34:07;;;;;;;38.83;6.78;;;5.40;99.90;;;;;;5015181;28;20045;-81
2022/01/30 03:36:33;;;;;;;26.90;7.05;;;5.40;99.90;;;;;;5031196;28;20111;-77
2022/01/30 03:38:59;;;;;;;31.77;6.75;;;5.50;99.90;;;;;;5014902;28;20048;-78
2022/01/30 03:41:25;;;;;;;40.58;8.07;;;5.40;99.90;;;;;;5014784;28;20045;-80
2022/01/30 03:43:54;;;;;;;43.15;8.30;;;5.60;99.90;;;;;;5031075;28;20056;-81
2022/01/30 03:46:21;;;;;;;37.95;6.55;;;5.40;99.90;;;;;;5014633;28;20508;-77
2022/01/30 03:48:47;;;;;;;37.03;7.43;;;5.40;99.90;;;;;;5030912;28;20053;-81
2022/01/30 03:51:14;;;;;;;32.30;6.80;;;5.40;67.80;;;;;;5014569;28;20050;-81
2022/01/30 03:53:40;;;;;;;37.72;7.63;;;5.60;53.80;;;;;;5014743;28;20132;-77
2022/01/30 03:56:06;;;;;;;32.38;5.22;;;5.70;28.50;;;;;;5014551;28;20131;-81
2022/01/30 03:58:33;;;;;;;38.60;7.47;;;5.60;82.40;;;;;;5031339;28;20392;-81
2022/01/30 04:00:59;;;;;;;33.08;6.63;;;5.20;99.90;;;;;;5014464;28;20049;-78
2022/01/30 04:03:25;;;;;;;41.45;7.38;;;5.10;99.90;;;;;;5031008;28;20119;-79
2022/01/30 04:05:51;;;;;;;40.83;8.95;;;5.00;99.90;;;;;;5030848;28;20049;-80
2022/01/30 04:08:17;;;;;;;46.78;8.23;;;5.00;99.90;;;;;;5031118;28;20046;-81
2022/01/30 04:10:43;;;;;;;30.58;6.88;;;5.10;99.90;;;;;;5032175;28;20055;-78
2022/01/30 04:13:09;;;;;;;31.48;6.13;;;5.20;99.90;;;;;;5034445;28;20041;-76
2022/01/30 04:15:35;;;;;;;31.55;6.25;;;5.30;99.90;;;;;;5018034;28;20052;-82
2022/01/30 04:18:02;;;;;;;24.58;7.10;;;5.10;99.20;;;;;;5034725;28;20484;-77
2022/01/30 04:20:28;;;;;;;44.42;7.55;;;5.20;95.00;;;;;;5017788;28;20037;-77
2022/01/30 04:22:54;;;;;;;33.45;6.00;;;5.10;89.10;;;;;;5034433;28;20052;-77
2022/01/30 04:25:20;;;;;;;37.92;7.22;;;5.10;93.50;;;;;;5034193;28;20083;-78
2022/01/30 04:27:46;;;;;;;41.25;6.40;;;5.20;91.80;;;;;;5001797;28;20534;-77
2022/01/30 04:30:13;;;;;;;47.83;7.53;;;5.20;91.10;;;;;;5034126;28;20041;-78
2022/01/30 04:32:43;;;;;;;42.05;7.90;;;5.30;80.70;;;;;;5034076;28;20037;-77
2022/01/30 04:35:15;;;;;;;34.97;8.48;;;5.20;91.20;;;;;;5034447;28;20049;-81
2022/01/30 04:40:45;;;;;;;40.03;7.72;;;5.30;78.40;;;;;;5034242;28;20056;-76
2022/01/30 05:04:54;;;;;;;46.00;10.57;;;5.50;71.90;;;;;;5018436;28;20041;-77
2022/01/30 05:09:45;;;;;;;40.83;8.15;;;5.10;99.90;;;;;;5033688;28;20198;-78
2022/01/30 05:12:13;;;;;;;46.53;7.60;;;5.20;99.90;;;;;;5033697;28;20083;-78
2022/01/30 05:14:39;;;;;;;30.65;6.20;;;5.10;99.90;;;;;;5033304;28;20064;-81
2022/01/30 05:17:05;;;;;;;30.48;6.63;;;5.10;99.90;;;;;;5016862;28;20042;-81
2022/01/30 05:19:32;;;;;;;45.67;7.88;;;5.10;99.90;;;;;;5033594;28;20050;-78
2022/01/30 05:21:58;;;;;;;31.00;6.57;;;5.00;99.90;;;;;;5016738;28;20088;-82
2022/01/30 05:24:24;;;;;;;46.85;8.23;;;4.90;99.90;;;;;;5033026;28;20045;-77
2022/01/30 05:26:51;;;;;;;51.70;8.45;;;4.90;99.90;;;;;;5016877;28;20488;-77
2022/01/30 05:29:17;;;;;;;38.75;7.07;;;5.00;99.90;;;;;;5033380;28;20548;-81
2022/01/30 05:31:43;;;;;;;44.58;9.15;;;5.10;99.90;;;;;;5016652;28;20045;-78
2022/01/30 05:34:10;;;;;;;55.10;10.45;;;5.20;99.90;;;;;;5033383;28;20447;-82
2022/01/30 05:36:39;;;;;;;45.58;8.02;;;5.30;92.50;;;;;;5017102;28;20056;-78
2022/01/30 05:39:05;;;;;;;37.50;8.18;;;5.50;47.30;;;;;;5016611;28;20132;-78
2022/01/30 05:41:32;;;;;;;38.75;7.65;;;5.50;42.90;;;;;;5016319;28;20045;-79
2022/01/30 05:44:15;;;;;;;33.35;7.50;;;5.60;11.60;;;;;;5016668;28;20493;-82
2022/01/30 05:46:54;;;;;;;34.30;6.72;;;5.70;2.70;;;;;;5032801;28;20041;-77
2022/01/30 05:49:21;;;;;;;43.47;7.10;;;5.70;4.80;;;;;;5017916;28;20054;-82
2022/01/30 05:51:47;;;;;;;32.13;6.15;;;5.90;1.00;;;;;;5000733;28;20041;-77
2022/01/30 05:54:12;;;;;;;31.77;5.75;;;5.90;1.00;;;;;;5016232;28;20046;-77
2022/01/30 05:56:38;;;;;;;45.20;6.03;;;5.90;1.00;;;;;;5032562;28;20388;-78
2022/01/30 05:59:04;;;;;;;36.25;7.68;;;5.80;1.00;;;;;;5032590;28;20076;-80
2022/01/30 06:01:31;;;;;;;43.88;7.15;;;5.80;1.00;;;;;;5032490;28;20041;-79
2022/01/30 06:03:56;;;;;;;31.88;5.85;;;5.80;1.00;;;;;;5016158;28;20053;-77
2022/01/30 06:06:22;;;;;;;27.92;5.25;;;5.80;1.00;;;;;;5015897;28;20107;-80
2022/01/30 06:11:42;;;;;;;39.08;7.70;;;5.50;35.20;;;;;;5028005;28;20049;-78
2022/01/30 06:14:08;;;;;;;48.05;8.35;;;5.30;31.40;;;;;;5016208;28;20067;-77
2022/01/30 06:16:34;;;;;;;28.95;6.20;;;5.30;21.70;;;;;;5016180;28;20037;-79
2022/01/30 06:19:01;;;;;;;31.08;6.30;;;5.50;5.40;;;;;;5015770;28;20049;-80
2022/01/30 06:21:27;;;;;;;45.10;6.88;;;5.50;1.00;;;;;;5015796;28;20045;-80
2022/01/30 06:23:54;;;;;;;26.45;5.18;;;5.40;1.00;;;;;;5032279;28;20403;-77
2022/01/30 06:26:20;;;;;;;34.83;7.10;;;5.40;1.00;;;;;;5032005;28;20081;-77
2022/01/30 06:28:45;;;;;;;28.00;5.78;;;5.50;1.00;;;;;;5032169;28;20084;-78
2022/01/30 06:31:11;;;;;;;43.67;8.07;;;5.50;1.00;;;;;;5015567;28;20055;-76
2022/01/30 06:33:37;;;;;;;32.28;6.35;;;5.50;1.00;;;;;;5031551;28;20050;-77
2022/01/30 06:36:03;;;;;;;37.00;7.22;;;5.50;1.00;;;;;;5031822;28;20052;-79
2022/01/30 06:38:28;;;;;;;39.00;7.10;;;5.50;1.00;;;;;;5031933;28;20377;-77
2022/01/30 06:40:54;;;;;;;32.95;5.85;;;5.50;1.00;;;;;;5031802;28;20041;-80
2022/01/30 06:43:19;;;;;;;39.05;7.18;;;5.70;1.00;;;;;;5015648;28;20045;-80
2022/01/30 06:45:47;;;;;;;34.63;7.78;;;5.70;1.00;;;;;;4998957;28;20049;-76
2022/01/30 06:48:17;;;;;;;34.65;7.60;;;5.70;1.00;;;;;;5031276;28;20056;-80
2022/01/30 06:50:42;;;;;;;30.52;6.93;;;5.70;1.00;;;;;;5031927;28;20427;-78
2022/01/30 06:53:08;;;;;;;40.42;7.97;;;5.80;1.00;;;;;;5032023;28;20045;-80
2022/01/30 06:55:34;;;;;;;31.20;6.45;;;5.80;1.00;;;;;;5031850;28;20095;-76
2022/01/30 06:57:59;;;;;;;30.73;6.97;;;5.80;1.00;;;;;;5031676;28;20080;-81
2022/01/30 07:00:25;;;;;;;37.83;6.90;;;5.80;1.00;;;;;;5014893;28;20044;-76
2022/01/30 07:02:51;;;;;;;42.92;8.27;;;5.90;1.00;;;;;;5031904;28;20053;-80
2022/01/30 07:05:16;;;;;;;37.75;8.63;;;6.00;1.00;;;;;;4998670;28;20304;-77
2022/01/30 07:07:42;;;;;;;53.40;8.57;;;5.70;4.80;;;;;;5031672;28;20044;-77
2022/01/30 07:10:08;;;;;;;48.45;7.20;;;5.60;15.20;;;;;;5015218;28;20038;-79
2022/01/30 07:12:34;;;;;;;54.13;8.27;;;5.50;11.90;;;;;;5031780;28;20096;-77
2022/01/30 07:15:00;;;;;;;34.13;5.85;;;5.60;11.90;;;;;;5031289;28;20081;-81
2022/01/30 07:17:25;;;;;;;30.30;5.68;;;5.60;1.00;;;;;;5031361;28;20503;-80
2022/01/30 07:19:51;;;;;;;35.95;5.00;;;5.70;1.00;;;;;;5015191;28;20050;-77
2022/01/30 07:22:17;;;;;;;35.15;5.78;;;5.40;1.00;;;;;;5014907;28;20128;-80
2022/01/30 07:24:42;;;;;;;30.10;5.35;;;5.40;1.00;;;;;;5014794;28;20046;-77
2022/01/30 07:27:11;;;;;;;23.65;4.90;;;5.20;1.00;;;;;;5014915;28;20042;-80
2022/01/30 07:29:37;;;;;;;27.85;5.47;;;5.30;1.00;;;;;;5031183;28;20128;-80
2022/01/30 07:32:03;;;;;;;21.98;4.95;;;5.40;1.00;;;;;;5031509;28;20137;-77
2022/01/30 07:34:28;;;;;;;27.95;5.30;;;5.50;1.00;;;;;;5014786;28;20054;-80
2022/01/30 07:36:57;;;;;;;22.83;5.35;;;5.50;1.00;;;;;;5031099;28;20550;-81
2022/01/30 07:39:27;;;;;;;29.30;6.10;;;5.50;1.00;;;;;;4999136;28;20618;-77
2022/01/30 07:41:53;;;;;;;30.92;5.38;;;5.40;1.00;;;;;;5015283;28;20088;-77
2022/01/30 07:44:19;;;;;;;23.48;5.47;;;5.40;1.00;;;;;;4998185;28;20038;-81
2022/01/30 07:46:44;;;;;;;41.75;5.18;;;5.50;1.00;;;;;;5034079;28;20557;-80
2022/01/30 07:49:10;;;;;;;20.27;4.38;;;5.60;1.00;;;;;;5034768;28;20061;-77
2022/01/30 07:51:36;;;;;;;25.92;4.78;;;5.50;1.00;;;;;;5035026;28;20419;-79
2022/01/30 07:54:02;;;;;;;29.42;5.72;;;5.40;1.00;;;;;;5002179;28;20045;-81
2022/01/30 07:56:27;;;;;;;30.20;5.15;;;5.50;1.00;;;;;;5034762;28;20072;-77
2022/01/30 07:58:53;;;;;;;30.05;5.75;;;5.50;1.00;;;;;;5034754;28;20042;-77
2022/01/30 08:01:19;;;;;;;19.13;3.60;;;5.60;1.00;;;;;;5034639;28;20500;-80
2022/01/30 08:03:44;;;;;;;27.73;6.57;;;5.60;1.00;;;;;;5034653;28;20080;-80
2022/01/30 08:06:10;;;;;;;31.55;5.80;;;5.60;1.00;;;;;;5017979;28;20411;-77
2022/01/30 08:08:36;;;;;;;30.98;5.38;;;5.50;1.00;;;;;;5034626;28;20045;-80
2022/01/30 08:11:02;;;;;;;24.15;5.13;;;5.50;1.00;;;;;;5034463;28;20038;-80
2022/01/30 08:13:28;;;;;;;37.28;7.97;;;5.50;1.00;;;;;;5034529;28;20095;-76
2022/01/30 08:15:54;;;;;;;25.40;4.97;;;5.50;1.00;;;;;;5017853;28;20519;-80
2022/01/30 08:18:19;;;;;;;37.80;5.72;;;5.60;1.00;;;;;;5018281;28;20194;-76
2022/01/30 08:20:45;;;;;;;39.67;6.68;;;5.50;1.00;;;;;;5001682;28;20038;-77
2022/01/30 08:23:13;;;;;;;34.90;6.30;;;5.50;1.00;;;;;;5001753;28;20033;-78
2022/01/30 08:25:40;;;;;;;38.05;5.95;;;5.50;1.00;;;;;;5034055;28;20049;-80
2022/01/30 08:28:06;;;;;;;33.10;5.88;;;5.30;1.00;;;;;;5034524;28;20053;-79
2022/01/30 08:30:32;;;;;;;35.83;5.63;;;5.30;1.00;;;;;;5033939;28;20120;-76
2022/01/30 08:32:59;;;;;;;42.30;6.13;;;5.30;1.00;;;;;;5034066;28;20041;-76
2022/01/30 08:35:26;;;;;;;29.65;5.63;;;5.40;1.00;;;;;;5034317;28;20037;-77
2022/01/30 08:37:52;;;;;;;23.08;5.07;;;5.50;1.00;;;;;;5017669;28;20046;-76
2022/01/30 08:40:20;;;;;;;29.05;6.88;;;5.60;1.00;;;;;;5017544;28;20406;-78
2022/01/30 08:42:47;;;;;;;34.15;5.95;;;5.60;1.00;;;;;;5033994;28;20042;-77
2022/01/30 08:45:15;;;;;;;26.02;5.43;;;5.60;1.00;;;;;;5000964;28;20092;-79
2022/01/30 08:47:42;;;;;;;32.72;5.72;;;5.60;1.00;;;;;;5033428;28;20061;-79
2022/01/30 08:50:09;;;;;;;31.08;7.55;;;5.60;1.00;;;;;;5033998;28;20053;-79
2022/01/30 08:52:35;;;;;;;24.02;5.55;;;5.60;1.00;;;;;;5033682;28;20045;-76
2022/01/30 08:55:02;;;;;;;35.35;6.03;;;5.50;1.00;;;;;;5033874;28;20399;-79
2022/01/30 08:57:28;;;;;;;37.58;6.30;;;5.40;1.00;;;;;;5016800;28;20057;-77
2022/01/30 08:59:55;;;;;;;32.60;5.47;;;5.50;1.00;;;;;;5000823;28;20408;-77
2022/01/30 09:02:22;;;;;;;33.90;5.72;;;5.70;1.00;;;;;;5033862;28;20061;-77
2022/01/30 09:04:48;;;;;;;26.40;5.95;;;5.90;1.00;;;;;;5016841;28;20041;-77
2022/01/30 09:07:14;;;;;;;27.73;5.43;;;5.80;1.00;;;;;;5016997;28;20042;-80
2022/01/30 09:09:39;;;;;;;23.98;5.20;;;5.80;1.00;;;;;;5033627;28;20132;-76
2022/01/30 09:12:06;;;;;;;32.60;5.45;;;5.60;1.00;;;;;;5033473;28;20041;-77
2022/01/30 09:14:32;;;;;;;40.20;6.15;;;5.60;1.00;;;;;;5033471;28;20464;-80
2022/01/30 09:16:58;;;;;;;36.70;7.10;;;5.70;1.00;;;;;;5000647;28;20057;-77
2022/01/30 09:19:24;;;;;;;29.67;5.95;;;5.80;1.00;;;;;;5000368;28;20373;-79
2022/01/30 09:21:51;;;;;;;33.25;6.70;;;6.10;1.00;;;;;;5016712;28;20407;-77
2022/01/30 09:24:17;;;;;;;32.92;5.25;;;6.10;1.00;;;;;;5033011;28;20056;-80
2022/01/30 09:26:43;;;;;;;33.10;5.82;;;6.10;1.00;;;;;;5016532;28;20120;-77
2022/01/30 09:29:08;;;;;;;39.08;6.22;;;5.90;1.00;;;;;;5033177;28;20038;-79
2022/01/30 09:31:34;;;;;;;26.85;6.50;;;5.90;1.00;;;;;;5032964;28;20411;-80
2022/01/30 09:34:00;;;;;;;21.00;5.28;;;6.00;1.00;;;;;;5033081;28;20038;-80
2022/01/30 09:36:26;;;;;;;29.75;8.15;;;6.10;1.00;;;;;;5033228;28;20055;-79
2022/01/30 09:38:52;;;;;;;23.02;4.18;;;6.20;1.00;;;;;;5033035;28;20045;-80
2022/01/30 09:41:18;;;;;;;27.80;5.97;;;6.00;1.00;;;;;;5032908;28;20084;-78
2022/01/30 09:43:45;;;;;;;29.77;5.28;;;6.00;1.00;;;;;;5016435;28;20049;-80
2022/01/30 09:46:11;;;;;;;23.85;5.18;;;6.10;1.00;;;;;;5032503;28;20124;-79
2022/01/30 09:48:38;;;;;;;25.98;5.25;;;6.20;1.00;;;;;;5032728;28;20060;-77
2022/01/30 09:51:06;;;;;;;25.90;4.60;;;6.20;1.00;;;;;;5016150;28;20083;-80
2022/01/30 09:53:33;;;;;;;28.73;5.65;;;6.20;1.00;;;;;;5016163;28;20075;-76
2022/01/30 09:56:02;;;;;;;17.30;4.55;;;6.10;1.00;;;;;;5032705;28;20516;-77
2022/01/30 09:58:28;;;;;;;22.98;3.95;;;6.10;1.00;;;;;;5015840;28;20187;-77
2022/01/30 10:00:53;;;;;;;24.90;4.00;;;6.20;1.00;;;;;;5032294;28;20136;-80
2022/01/30 10:03:26;;;;;;;27.58;5.03;;;6.40;1.00;;;;;;5032792;28;20049;-80
2022/01/30 10:06:22;;;;;;;26.15;4.82;;;6.60;1.00;;;;;;4999853;28;20056;-78
2022/01/30 10:08:53;;;;;;;25.05;5.28;;;7.00;1.00;;;;;;5047969;28;20143;-78
2022/01/30 10:11:34;;;;;;;29.33;5.57;;;6.80;1.00;;;;;;5032294;28;20041;-76
2022/01/30 10:14:10;;;;;;;20.67;4.53;;;6.60;1.00;;;;;;5032631;28;20067;-80
2022/01/30 10:16:49;;;;;;;37.17;6.60;;;6.40;1.00;;;;;;5032146;28;20045;-80
2022/01/30 10:19:20;;;;;;;40.20;6.25;;;6.40;1.00;;;;;;5032149;28;20080;-80
2022/01/30 10:22:06;;;;;;;24.35;5.75;;;6.20;1.00;;;;;;5032096;28;20049;-80
2022/01/30 10:24:38;;;;;;;36.35;7.10;;;6.20;1.00;;;;;;5031955;28;20100;-79
2022/01/30 10:27:19;;;;;;;32.63;5.72;;;6.20;1.00;;;;;;5015521;28;20046;-77
2022/01/30 10:29:44;;;;;;;22.23;3.95;;;6.10;1.00;;;;;;5031928;28;20085;-77
2022/01/30 10:32:10;;;;;;;24.05;4.88;;;5.90;1.00;;;;;;5032211;28;20029;-79
2022/01/30 10:34:38;;;;;;;30.55;5.75;;;5.90;1.00;;;;;;5032135;28;20077;-79
2022/01/30 10:37:14;;;;;;;30.23;4.55;;;6.00;1.00;;;;;;4999459;28;20094;-76
2022/01/30 10:40:15;;;;;;;27.30;4.65;;;6.50;1.00;;;;;;5032057;28;20578;-76
2022/01/30 10:42:46;;;;;;;39.35;6.10;;;6.80;1.00;;;;;;5031758;28;20049;-80
2022/01/30 10:45:16;;;;;;;25.77;6.00;;;6.80;1.00;;;;;;5031635;28;20037;-79
2022/01/30 10:47:43;;;;;;;20.27;4.82;;;6.80;1.00;;;;;;5015130;28;21922;-76
2022/01/30 10:50:13;;;;;;;35.40;5.63;;;7.10;1.00;;;;;;5031628;28;20056;-80
2022/01/30 10:53:15;;;;;;;31.17;5.93;;;7.10;1.00;;;;;;5033059;28;20132;-76
2022/01/30 10:55:44;;;;;;;36.40;5.68;;;7.10;1.00;;;;;;5047899;28;20058;-79
2022/01/30 10:58:11;;;;;;;19.55;4.57;;;7.20;1.00;;;;;;5015371;28;20049;-79
2022/01/30 11:00:45;;;;;;;24.23;4.45;;;7.10;1.00;;;;;;5031405;28;20042;-79
2022/01/30 11:03:39;;;;;;;21.55;4.00;;;7.40;1.00;;;;;;5031882;28;20472;-79
2022/01/30 11:06:10;;;;;;;27.98;6.03;;;7.30;1.00;;;;;;5031450;28;20045;-80
2022/01/30 11:08:39;;;;;;;22.50;4.88;;;6.90;1.00;;;;;;5031549;28;20052;-78
2022/01/30 11:11:16;;;;;;;36.42;7.63;;;6.60;1.00;;;;;;5031507;28;20095;-76
2022/01/30 11:14:00;;;;;;;35.30;5.90;;;6.60;1.00;;;;;;5031574;28;20091;-76
2022/01/30 11:19:15;;;;;;;37.80;5.78;;;6.90;1.00;;;;;;5032187;28;20068;-76
2022/01/30 11:21:41;;;;;;;23.45;5.00;;;7.20;1.00;;;;;;5035803;28;20131;-79
2022/01/30 11:24:10;;;;;;;25.52;5.50;;;7.30;1.00;;;;;;5035566;28;20084;-79
2022/01/30 11:26:38;;;;;;;26.65;4.00;;;7.40;1.00;;;;;;5018832;28;20083;-77
2022/01/30 11:29:08;;;;;;;28.00;5.68;;;7.50;1.00;;;;;;5002885;28;20095;-80
2022/01/30 11:31:35;;;;;;;29.00;6.93;;;7.40;1.00;;;;;;5035306;28;20076;-76
2022/01/30 11:34:01;;;;;;;30.45;4.95;;;7.50;1.00;;;;;;5018992;28;20060;-79
2022/01/30 11:36:27;;;;;;;34.70;5.57;;;7.50;1.00;;;;;;5018798;28;20048;-76
2022/01/30 11:38:54;;;;;;;36.30;6.43;;;7.40;1.00;;;;;;5018668;28;20041;-77
2022/01/30 11:41:20;;;;;;;35.00;6.70;;;7.30;1.00;;;;;;5018635;28;20065;-80
2022/01/30 11:44:17;;;;;;;32.58;6.32;;;7.20;1.00;;;;;;5018532;28;20081;-77
2022/01/30 11:47:07;;;;;;;37.78;7.03;;;7.00;1.00;;;;;;5034953;28;20469;-79
2022/01/30 11:50:06;;;;;;;41.05;8.27;;;6.90;1.00;;;;;;5018132;28;20089;-77
2022/01/30 11:52:58;;;;;;;39.78;6.57;;;6.90;1.00;;;;;;5034260;28;20137;-77
2022/01/30 11:55:43;;;;;;;39.38;7.15;;;6.90;1.00;;;;;;5050899;28;20045;-78
2022/01/30 11:58:34;;;;;;;42.47;7.30;;;7.00;1.00;;;;;;5035153;28;20129;-77
2022/01/30 12:01:06;;;;;;;29.02;5.50;;;7.10;1.00;;;;;;5018424;28;20497;-79
2022/01/30 12:03:35;;;;;;;34.00;5.63;;;7.40;1.00;;;;;;5035094;28;20549;-79
2022/01/30 12:06:19;;;;;;;39.17;7.00;;;7.60;1.00;;;;;;5034643;28;20041;-80
2022/01/30 12:08:46;;;;;;;40.15;6.75;;;7.50;1.00;;;;;;5034633;28;20045;-78
2022/01/30 12:11:37;;;;;;;36.08;5.85;;;7.50;1.00;;;;;;5034454;28;20042;-80
2022/01/30 12:14:04;;;;;;;28.00;5.72;;;7.20;1.00;;;;;;5034358;28;20042;-79
2022/01/30 12:16:57;;;;;;;23.92;5.47;;;6.90;1.00;;;;;;5034484;28;20128;-77
2022/01/30 12:19:41;;;;;;;22.52;3.35;;;6.50;1.00;;;;;;5034398;28;20053;-77
2022/01/30 12:22:16;;;;;;;28.77;5.18;;;6.30;1.00;;;;;;5034407;28;20094;-79
2022/01/30 12:24:43;;;;;;;31.52;6.85;;;6.00;1.00;;;;;;5034457;28;20488;-77
2022/01/30 12:27:10;;;;;;;35.38;5.18;;;5.90;1.00;;;;;;5018477;28;20945;-79
2022/01/30 12:29:43;;;;;;;24.92;4.22;;;6.10;1.00;;;;;;5017663;28;20080;-76
2022/01/30 12:32:23;;;;;;;30.95;6.07;;;6.30;1.00;;;;;;5033584;28;20045;-76
2022/01/30 12:34:55;;;;;;;22.50;4.82;;;6.40;1.00;;;;;;5034026;28;20091;-79
2022/01/30 12:37:23;;;;;;;31.05;5.18;;;6.60;1.00;;;;;;5017593;28;20103;-76
2022/01/30 12:39:50;;;;;;;28.85;4.28;;;6.80;1.00;;;;;;5017492;28;20099;-77
2022/01/30 12:42:18;;;;;;;26.90;4.72;;;6.90;1.00;;;;;;5034571;28;20504;-80
2022/01/30 12:44:45;;;;;;;33.22;4.45;;;7.40;1.00;;;;;;5017517;28;20283;-79
2022/01/30 12:47:10;;;;;;;19.92;3.72;;;7.70;1.00;;;;;;5034207;28;20387;-77
2022/01/30 12:49:43;;;;;;;19.13;4.68;;;7.50;1.00;;;;;;5033567;28;20062;-76
2022/01/30 12:52:16;;;;;;;25.85;5.43;;;7.40;1.00;;;;;;5002255;28;20049;-76
2022/01/30 12:54:43;;;;;;;29.58;4.25;;;6.90;1.00;;;;;;5033805;28;20046;-78
2022/01/30 12:57:11;;;;;;;36.63;6.90;;;6.40;1.00;;;;;;5017315;28;21106;-79
2022/01/30 12:59:37;;;;;;;38.85;6.57;;;6.10;1.00;;;;;;5033628;28;20075;-76
2022/01/30 13:02:05;;;;;;;29.17;5.45;;;5.90;1.00;;;;;;5033812;28;20045;-76
2022/01/30 13:04:31;;;;;;;34.03;6.93;;;6.30;1.00;;;;;;5033747;28;20046;-79
2022/01/30 13:06:57;;;;;;;30.15;5.25;;;7.00;1.00;;;;;;5033536;28;20604;-76
2022/01/30 13:09:27;;;;;;;34.65;5.85;;;7.50;1.00;;;;;;5017199;28;20480;-76
2022/01/30 13:11:55;;;;;;;28.15;5.25;;;8.00;1.00;;;;;;5033281;28;20038;-79
2022/01/30 13:14:21;;;;;;;34.55;5.68;;;8.10;1.00;;;;;;5033407;28;20055;-79
2022/01/30 13:16:51;;;;;;;25.55;4.85;;;8.30;1.00;;;;;;5033431;28;20049;-79
2022/01/30 13:19:42;;;;;;;31.33;6.00;;;8.20;1.00;;;;;;5033423;28;20500;-80
2022/01/30 13:22:10;;;;;;;25.35;4.68;;;8.00;1.00;;;;;;5033507;28;20049;-76
2022/01/30 13:24:38;;;;;;;22.42;4.28;;;7.50;1.00;;;;;;5016889;28;20627;-79
2022/01/30 13:27:06;;;;;;;19.98;4.03;;;7.20;1.00;;;;;;5033130;28;20049;-79
2022/01/30 13:29:35;;;;;;;16.92;3.85;;;6.90;1.00;;;;;;5033054;28;20784;-78
2022/01/30 13:32:06;;;;;;;22.00;3.60;;;6.70;1.00;;;;;;5033135;28;20076;-79
2022/01/30 13:34:33;;;;;;;31.02;4.93;;;6.50;1.00;;;;;;5016571;28;20054;-79
2022/01/30 13:37:06;;;;;;;30.25;5.07;;;6.50;1.00;;;;;;5016344;28;20034;-76
2022/01/30 13:40:07;;;;;;;29.83;5.45;;;6.50;1.00;;;;;;5032785;28;20041;-76
2022/01/30 13:48:06;;;;;;;34.10;6.45;;;6.50;1.00;;;;;;5033134;28;20430;-76
2022/01/30 13:50:34;;;;;;;24.52;5.03;;;6.40;1.00;;;;;;5032739;28;20057;-78
2022/01/30 13:53:13;;;;;;;21.98;4.20;;;6.50;1.00;;;;;;5032771;28;20204;-76
2022/01/30 13:56:00;;;;;;;25.35;4.70;;;6.50;1.00;;;;;;5016691;28;20045;-79
2022/01/30 13:58:37;;;;;;;24.67;4.47;;;6.50;1.00;;;;;;5031439;28;20052;-77
2022/01/30 14:01:07;;;;;;;17.33;3.83;;;6.50;1.00;;;;;;5031637;28;20500;-79
2022/01/30 14:03:35;;;;;;;25.67;4.25;;;6.40;1.00;;;;;;5031606;28;20045;-79
2022/01/30 14:06:01;;;;;;;19.20;3.50;;;6.40;1.00;;;;;;5031575;28;20044;-76
2022/01/30 14:08:27;;;;;;;39.70;5.65;;;6.40;1.00;;;;;;5030851;28;20196;-76